Time;durP1;ratioP1;P1;durP2;ratioP2;P2;SDS_P1;SDS_P2;PMS_P1;PMS_P2;Temp;Humidity;BMP_temperature;BMP_pressure;BME280_temperature;BME280_humidity;BME280_pressure;Samples;Min_cycle;Max_cycle;Signal;HPM_P1;HPM_P2
2022/09/19 00:01:13;;;;;;;15.63;2.42;;;12.10;99.90;;;;;;5033743;28;20088;-32
2022/09/19 00:03:41;;;;;;;19.00;2.50;;;13.10;99.90;;;;;;5033703;28;20081;-32
2022/09/19 00:06:09;;;;;;;25.08;2.72;;;12.40;99.90;;;;;;5033662;28;20041;-32
2022/09/19 00:08:37;;;;;;;17.05;1.85;;;12.60;99.90;;;;;;5033501;28;20045;-33
2022/09/19 00:11:06;;;;;;;22.83;2.90;;;12.00;99.90;;;;;;5033620;28;20096;-34
2022/09/19 00:13:33;;;;;;;18.33;2.63;;;11.10;99.90;;;;;;5033549;28;20487;-32
2022/09/19 00:16:00;;;;;;;25.45;2.90;;;10.90;99.90;;;;;;5034276;28;20053;-32
2022/09/19 00:18:27;;;;;;;20.58;2.58;;;12.80;99.90;;;;;;5033255;28;20041;-32
2022/09/19 00:20:53;;;;;;;19.00;3.53;;;10.80;99.90;;;;;;5037961;28;20079;-32
2022/09/19 00:26:07;;;;;;;14.90;2.05;;;11.90;99.90;;;;;;5038196;28;20102;-32
2022/09/19 00:28:33;;;;;;;18.15;1.95;;;11.20;99.90;;;;;;5038352;28;20045;-32
2022/09/19 00:31:00;;;;;;;15.48;2.22;;;10.80;99.90;;;;;;5037349;28;20050;-33
2022/09/19 00:33:30;;;;;;;25.52;2.83;;;12.20;99.90;;;;;;5037403;28;20156;-32
2022/09/19 00:35:56;;;;;;;26.17;3.65;;;12.50;99.90;;;;;;5037317;28;20081;-33
2022/09/19 00:38:24;;;;;;;19.65;2.92;;;12.70;99.90;;;;;;5037953;28;20060;-32
2022/09/19 00:40:50;;;;;;;19.48;3.10;;;11.50;99.90;;;;;;5037277;28;20048;-32
2022/09/19 00:43:18;;;;;;;11.07;1.98;;;11.10;99.90;;;;;;5038089;28;20053;-31
2022/09/19 00:45:44;;;;;;;15.90;1.67;;;11.60;99.90;;;;;;5036274;28;20389;-32
2022/09/19 00:48:13;;;;;;;24.75;4.47;;;11.50;99.90;;;;;;5037630;28;20045;-31
2022/09/19 00:50:41;;;;;;;18.27;3.47;;;12.20;99.90;;;;;;5036964;28;20383;-32
2022/09/19 00:53:15;;;;;;;18.35;3.03;;;12.70;99.90;;;;;;5036350;28;20491;-33
2022/09/19 00:55:41;;;;;;;;;;;12.00;99.90;;;;;;5036498;28;20052;-32
2022/09/19 00:58:21;;;;;;;27.23;3.28;;;11.40;99.90;;;;;;5036979;28;20093;-32
2022/09/19 01:00:47;;;;;;;24.13;2.95;;;12.80;99.90;;;;;;5036676;28;20495;-32
2022/09/19 01:03:13;;;;;;;24.05;3.47;;;12.80;99.90;;;;;;5037460;28;20076;-33
2022/09/19 01:05:42;;;;;;;20.88;3.13;;;11.40;99.90;;;;;;5036860;28;20112;-32
2022/09/19 01:08:17;;;;;;;17.35;2.53;;;12.10;99.90;;;;;;5035819;28;20061;-32
2022/09/19 01:10:49;;;;;;;13.32;2.38;;;11.90;99.90;;;;;;5037638;28;20060;-34
2022/09/19 01:13:29;;;;;;;11.73;1.90;;;11.40;99.90;;;;;;5036710;28;20131;-32
2022/09/19 01:16:01;;;;;;;14.13;2.15;;;11.40;99.90;;;;;;5035513;28;20045;-33
2022/09/19 01:18:34;;;;;;;17.17;2.13;;;10.90;99.90;;;;;;5036622;28;20115;-31
2022/09/19 01:24:19;;;;;;;15.38;2.30;;;10.90;99.90;;;;;;5037104;28;20056;-31
2022/09/19 01:27:12;;;;;;;15.07;2.35;;;12.80;99.90;;;;;;5035931;28;20053;-32
2022/09/19 01:29:44;;;;;;;14.82;3.33;;;12.50;99.90;;;;;;5037249;28;20045;-32
2022/09/19 01:32:17;;;;;;;25.05;2.78;;;10.60;99.90;;;;;;5018853;28;20499;-32
2022/09/19 01:34:50;;;;;;;20.08;2.80;;;12.50;99.90;;;;;;5036277;28;20553;-33
2022/09/19 01:37:19;;;;;;;22.17;2.67;;;11.00;99.90;;;;;;5037133;28;20049;-32
2022/09/19 01:39:50;;;;;;;18.48;2.42;;;11.00;99.90;;;;;;5035912;28;20487;-33
2022/09/19 01:42:22;;;;;;;20.65;2.72;;;10.70;99.90;;;;;;5036971;28;20049;-33
2022/09/19 01:44:48;;;;;;;23.48;3.60;;;13.00;99.90;;;;;;5035042;28;20491;-33
2022/09/19 01:47:17;;;;;;;23.33;2.63;;;12.60;99.90;;;;;;5035659;28;20361;-32
2022/09/19 01:49:52;;;;;;;21.42;4.32;;;12.20;99.90;;;;;;5035955;28;20053;-33
2022/09/19 01:52:30;;;;;;;17.17;2.00;;;12.50;99.90;;;;;;5036029;28;20099;-32
2022/09/19 01:55:39;;;;;;;20.67;3.50;;;10.80;99.90;;;;;;5036384;28;20037;-33
2022/09/19 01:58:18;;;;;;;20.88;2.55;;;12.30;99.90;;;;;;5035979;28;20057;-33
2022/09/19 02:00:55;;;;;;;18.30;2.40;;;11.30;99.90;;;;;;5035727;28;20053;-33
2022/09/19 02:03:46;;;;;;;17.77;2.63;;;11.80;99.90;;;;;;5035826;28;20041;-33
2022/09/19 02:06:35;;;;;;;17.75;1.90;;;11.30;99.90;;;;;;5036581;28;20046;-34
2022/09/19 02:09:13;;;;;;;16.38;2.28;;;11.10;99.90;;;;;;5034688;28;20476;-32
2022/09/19 02:11:42;;;;;;;11.93;1.80;;;12.30;99.90;;;;;;5034529;28;20132;-33
2022/09/19 02:14:16;;;;;;;10.70;1.25;;;11.30;99.90;;;;;;5034625;28;20115;-32
2022/09/19 02:16:58;;;;;;;10.88;2.83;;;11.30;99.90;;;;;;5035809;28;20396;-32
2022/09/19 02:19:32;;;;;;;15.15;1.58;;;12.60;99.90;;;;;;5035880;28;20054;-32
2022/09/19 02:22:10;;;;;;;13.82;2.70;;;11.50;99.90;;;;;;5035559;28;20124;-33
2022/09/19 02:24:39;;;;;;;9.80;1.98;;;12.70;99.90;;;;;;5035412;28;20045;-32
2022/09/19 02:27:17;;;;;;;17.38;2.08;;;12.70;99.90;;;;;;5035633;28;20391;-32
2022/09/19 02:29:58;;;;;;;11.75;1.60;;;12.30;99.90;;;;;;5036135;28;20072;-32
2022/09/19 02:32:24;;;;;;;17.65;1.95;;;11.50;99.90;;;;;;5018667;28;20053;-32
2022/09/19 02:34:53;;;;;;;12.82;2.05;;;12.10;99.90;;;;;;5035370;28;20107;-32
2022/09/19 02:37:29;;;;;;;10.10;1.58;;;12.50;99.90;;;;;;5034976;28;20061;-32
2022/09/19 02:40:11;;;;;;;16.15;2.38;;;11.50;99.90;;;;;;5035374;28;20446;-32
2022/09/19 02:42:57;;;;;;;22.77;2.85;;;12.70;99.90;;;;;;5034466;28;20056;-32
2022/09/19 02:45:38;;;;;;;13.43;3.10;;;12.00;99.90;;;;;;5034835;28;20058;-32
2022/09/19 02:48:19;;;;;;;16.77;2.55;;;11.80;99.90;;;;;;5033860;28;20510;-33
2022/09/19 02:50:59;;;;;;;18.17;2.35;;;11.90;48.70;;;;;;5034933;28;20049;-33
2022/09/19 02:53:39;;;;;;;23.80;3.75;;;11.90;1.00;;;;;;5034881;28;20137;-33
2022/09/19 02:56:06;;;;;;;20.20;3.28;;;12.60;1.00;;;;;;5034756;28;20045;-32
2022/09/19 02:58:40;;;;;;;19.58;2.53;;;11.80;1.00;;;;;;5035017;28;20491;-32
2022/09/19 03:01:12;;;;;;;17.67;2.80;;;12.70;1.00;;;;;;5035524;28;20119;-32
2022/09/19 03:06:35;;;;;;;29.92;4.50;;;12.90;95.90;;;;;;5034633;28;20079;-33
2022/09/19 03:09:03;;;;;;;21.83;3.00;;;12.40;99.90;;;;;;5034568;28;20046;-32
2022/09/19 03:11:32;;;;;;;19.67;2.90;;;12.90;99.90;;;;;;5034438;28;20553;-34
2022/09/19 03:13:59;;;;;;;25.13;3.67;;;11.90;99.90;;;;;;5034390;28;20053;-34
2022/09/19 03:16:40;;;;;;;15.50;2.65;;;12.70;99.90;;;;;;5034386;28;20038;-33
2022/09/19 03:19:07;;;;;;;21.52;3.00;;;12.80;99.90;;;;;;5034677;28;20049;-33
2022/09/19 03:21:36;;;;;;;23.35;3.55;;;12.50;13.60;;;;;;5033994;28;20467;-33
2022/09/19 03:24:02;;;;;;;14.57;2.03;;;12.80;1.00;;;;;;5034293;28;20407;-34
2022/09/19 03:26:31;;;;;;;19.80;4.03;;;12.90;1.00;;;;;;5034202;28;20045;-34
2022/09/19 03:28:58;;;;;;;18.60;2.65;;;12.90;1.00;;;;;;5034146;28;20133;-34
2022/09/19 03:31:25;;;;;;;24.48;3.60;;;12.80;1.00;;;;;;5034733;28;20136;-33
2022/09/19 03:33:51;;;;;;;19.40;3.38;;;12.60;1.00;;;;;;5034103;28;20144;-36
2022/09/19 03:36:18;;;;;;;16.55;2.35;;;12.10;1.00;;;;;;5034021;28;20076;-35
2022/09/19 03:38:44;;;;;;;25.98;2.40;;;13.10;1.00;;;;;;5034044;28;20045;-33
2022/09/19 03:41:16;;;;;;;21.65;2.92;;;11.90;99.90;;;;;;5032861;28;20146;-32
2022/09/19 03:43:42;;;;;;;24.85;3.03;;;11.60;99.90;;;;;;5033954;28;20151;-33
2022/09/19 03:46:13;;;;;;;20.25;2.67;;;11.20;99.90;;;;;;5049387;28;20135;-34
2022/09/19 03:48:40;;;;;;;28.27;5.47;;;12.20;99.90;;;;;;5033785;28;20052;-33
2022/09/19 03:51:07;;;;;;;16.13;3.47;;;12.80;99.90;;;;;;5033843;28;20094;-34
2022/09/19 03:53:33;;;;;;;18.95;2.92;;;12.10;99.90;;;;;;5033667;28;20137;-33
2022/09/19 03:56:00;;;;;;;20.45;2.53;;;12.70;99.90;;;;;;5032413;28;20037;-33
2022/09/19 03:58:26;;;;;;;15.52;2.75;;;11.90;99.90;;;;;;5034367;28;20048;-32
2022/09/19 04:00:51;;;;;;;16.90;2.90;;;11.80;99.90;;;;;;5033729;28;20134;-34
2022/09/19 04:03:23;;;;;;;18.88;2.70;;;12.60;99.90;;;;;;5033408;28;20131;-33
2022/09/19 04:05:52;;;;;;;20.25;3.38;;;12.00;99.90;;;;;;5033614;28;20418;-34
2022/09/19 04:08:19;;;;;;;27.40;4.40;;;12.60;99.90;;;;;;5034179;28;20041;-34
2022/09/19 04:10:46;;;;;;;25.08;3.45;;;12.80;99.90;;;;;;5034260;28;20049;-33
2022/09/19 04:13:12;;;;;;;27.33;3.67;;;11.80;99.90;;;;;;5033337;28;20510;-34
2022/09/19 04:15:38;;;;;;;25.33;3.15;;;11.80;99.90;;;;;;5034392;28;20051;-35
2022/09/19 04:18:04;;;;;;;17.40;3.40;;;12.00;99.90;;;;;;5033589;28;20041;-34
2022/09/19 04:20:31;;;;;;;17.02;2.58;;;12.80;79.00;;;;;;5033577;28;20049;-33
2022/09/19 04:23:00;;;;;;;25.05;2.90;;;12.60;18.70;;;;;;5032598;28;20053;-33
2022/09/19 04:25:35;;;;;;;18.17;2.50;;;12.00;99.90;;;;;;5034071;28;20095;-33
2022/09/19 04:28:03;;;;;;;18.42;2.28;;;12.80;99.90;;;;;;5033811;28;20060;-33
2022/09/19 04:30:35;;;;;;;22.73;2.90;;;12.70;99.90;;;;;;5033495;28;20080;-36
2022/09/19 04:33:03;;;;;;;16.27;2.50;;;12.10;99.90;;;;;;5032202;28;20392;-33
2022/09/19 04:35:35;;;;;;;22.42;2.88;;;12.50;99.90;;;;;;5033595;28;20601;-32
2022/09/19 04:38:12;;;;;;;24.25;2.72;;;12.50;99.90;;;;;;5033383;28;20049;-32
2022/09/19 04:40:43;;;;;;;23.33;4.15;;;12.00;99.90;;;;;;5033425;28;20076;-32
2022/09/19 04:43:11;;;;;;;19.13;3.05;;;11.70;99.90;;;;;;5032993;28;20053;-32
2022/09/19 04:45:39;;;;;;;19.92;3.22;;;13.10;99.90;;;;;;5033436;28;20052;-32
2022/09/19 04:48:05;;;;;;;18.85;3.03;;;12.50;99.90;;;;;;5032497;28;20060;-32
2022/09/19 04:50:33;;;;;;;24.00;3.45;;;11.40;99.90;;;;;;5033083;28;20132;-31
2022/09/19 04:52:58;;;;;;;14.93;2.13;;;13.00;99.90;;;;;;5032078;28;20549;-32
2022/09/19 04:55:25;;;;;;;16.13;3.05;;;11.00;99.90;;;;;;5033177;28;20045;-32
2022/09/19 04:57:51;;;;;;;16.25;3.03;;;10.90;99.90;;;;;;5033224;28;20046;-31
2022/09/19 05:00:37;;;;;;;12.98;2.17;;;11.90;99.90;;;;;;5033181;28;20088;-32
2022/09/19 05:03:12;;;;;;;17.70;2.80;;;12.30;99.90;;;;;;5033772;28;20120;-31
2022/09/19 05:05:50;;;;;;;23.70;4.43;;;12.20;99.90;;;;;;5034444;28;20052;-31
2022/09/19 05:08:18;;;;;;;18.95;2.47;;;11.30;99.90;;;;;;5036468;28;20075;-32
2022/09/19 05:10:45;;;;;;;17.92;2.42;;;11.20;99.90;;;;;;5036820;28;20099;-32
2022/09/19 05:13:12;;;;;;;20.60;3.05;;;11.70;99.90;;;;;;5019313;28;20057;-32
2022/09/19 05:15:40;;;;;;;23.85;2.72;;;11.60;99.90;;;;;;5035543;28;20080;-33
2022/09/19 05:18:05;;;;;;;18.30;3.17;;;11.80;99.90;;;;;;5037180;28;20053;-33
2022/09/19 05:20:35;;;;;;;19.95;3.88;;;11.80;99.90;;;;;;5036330;28;20064;-33
2022/09/19 05:23:00;;;;;;;17.13;2.42;;;12.00;99.90;;;;;;5019135;28;20100;-32
2022/09/19 05:25:34;;;;;;;22.20;3.13;;;12.90;96.90;;;;;;5037001;28;20038;-33
2022/09/19 05:28:04;;;;;;;14.68;2.45;;;11.90;42.00;;;;;;5036739;28;20049;-34
2022/09/19 05:30:32;;;;;;;10.30;1.90;;;12.60;1.00;;;;;;5036354;28;20557;-34
2022/09/19 05:32:59;;;;;;;13.90;2.10;;;12.80;1.00;;;;;;5036363;28;20057;-32
2022/09/19 05:35:26;;;;;;;17.98;3.15;;;11.80;1.00;;;;;;5035100;28;20458;-33
2022/09/19 05:37:52;;;;;;;26.52;3.55;;;11.40;99.90;;;;;;5035100;28;20049;-33
2022/09/19 05:40:18;;;;;;;21.33;3.28;;;10.80;99.90;;;;;;5036181;28;20133;-32
2022/09/19 05:42:50;;;;;;;21.00;3.08;;;11.30;99.90;;;;;;5034917;28;20059;-32
2022/09/19 05:45:16;;;;;;;16.92;2.65;;;10.80;99.90;;;;;;5035137;28;20145;-32
2022/09/19 05:47:42;;;;;;;16.85;2.33;;;12.90;99.90;;;;;;5034786;28;20066;-32
2022/09/19 05:50:10;;;;;;;16.98;3.22;;;13.10;99.90;;;;;;5034995;28;20045;-32
2022/09/19 05:55:26;;;;;;;18.13;2.85;;;12.80;99.90;;;;;;5035914;28;20107;-32
2022/09/19 05:57:55;;;;;;;19.20;2.88;;;11.10;99.90;;;;;;5036203;28;20053;-31
2022/09/19 06:00:23;;;;;;;18.42;3.78;;;12.50;99.90;;;;;;5036157;28;20045;-32
2022/09/19 06:03:00;;;;;;;16.20;2.92;;;13.30;99.90;;;;;;5035691;28;20041;-31
2022/09/19 06:05:28;;;;;;;25.80;2.60;;;10.90;99.90;;;;;;5036238;28;20125;-32
2022/09/19 06:07:58;;;;;;;21.95;3.42;;;13.40;99.90;;;;;;5017973;28;20064;-32
2022/09/19 06:10:24;;;;;;;18.45;2.75;;;13.30;99.90;;;;;;5035574;28;20122;-32
2022/09/19 06:12:52;;;;;;;19.60;2.85;;;11.00;99.90;;;;;;5035591;28;20119;-32
2022/09/19 06:15:18;;;;;;;21.20;2.85;;;11.40;99.90;;;;;;5035531;28;20102;-31
2022/09/19 06:17:49;;;;;;;16.58;2.83;;;11.50;99.90;;;;;;5034828;28;20476;-33
2022/09/19 06:20:16;;;;;;;19.65;2.72;;;13.60;99.90;;;;;;5036401;28;20068;-34
2022/09/19 06:22:42;;;;;;;11.80;1.67;;;13.50;99.90;;;;;;5036013;28;20391;-34
2022/09/19 06:25:08;;;;;;;23.08;2.72;;;13.20;99.90;;;;;;5036206;28;20045;-33
2022/09/19 06:27:35;;;;;;;15.32;1.98;;;13.30;99.90;;;;;;5035621;28;20053;-31
2022/09/19 06:30:02;;;;;;;16.98;2.80;;;11.10;99.90;;;;;;5034629;28;20454;-33
2022/09/19 06:32:28;;;;;;;20.70;2.30;;;10.90;99.90;;;;;;5035242;28;20151;-31
2022/09/19 06:34:54;;;;;;;12.23;1.67;;;13.10;99.90;;;;;;5035148;28;20084;-32
2022/09/19 06:37:20;;;;;;;12.35;2.15;;;13.10;99.90;;;;;;5035157;28;20399;-32
2022/09/19 06:39:46;;;;;;;15.88;2.50;;;11.00;99.90;;;;;;5034137;28;20124;-31
2022/09/19 06:42:12;;;;;;;14.63;2.38;;;11.00;99.90;;;;;;5034723;28;20156;-32
2022/09/19 06:44:38;;;;;;;11.32;1.75;;;13.00;99.90;;;;;;5033720;28;20084;-32
2022/09/19 06:47:05;;;;;;;11.43;1.60;;;12.90;99.90;;;;;;5017557;28;20174;-33
2022/09/19 06:49:30;;;;;;;11.63;2.08;;;13.10;99.90;;;;;;5034939;28;20054;-32
2022/09/19 06:51:57;;;;;;;17.92;3.25;;;10.90;99.90;;;;;;5035413;28;20387;-32
2022/09/19 06:54:23;;;;;;;23.20;3.33;;;11.00;99.90;;;;;;5033700;28;20399;-33
2022/09/19 06:56:50;;;;;;;20.60;3.72;;;11.00;99.90;;;;;;5034685;28;20041;-33
2022/09/19 06:59:19;;;;;;;24.13;4.03;;;11.20;99.90;;;;;;5034761;28;20092;-33
2022/09/19 07:01:45;;;;;;;21.52;3.78;;;13.50;99.90;;;;;;5033589;28;20045;-32
2022/09/19 07:04:11;;;;;;;19.83;4.40;;;13.00;99.90;;;;;;5034955;28;20124;-32
2022/09/19 07:06:37;;;;;;;43.58;4.80;;;13.90;99.90;;;;;;5034596;28;20084;-32
2022/09/19 07:09:04;;;;;;;25.77;4.47;;;13.90;99.90;;;;;;5035138;28;20073;-34
2022/09/19 07:11:30;;;;;;;19.23;2.63;;;12.20;99.90;;;;;;5033267;28;20495;-33
2022/09/19 07:13:56;;;;;;;19.50;2.80;;;12.40;99.90;;;;;;5034475;28;20054;-33
2022/09/19 07:16:22;;;;;;;20.58;2.85;;;13.80;93.30;;;;;;5034317;28;20077;-37
2022/09/19 07:18:48;;;;;;;21.20;3.22;;;14.20;6.40;;;;;;5034388;28;20084;-33
2022/09/19 07:21:14;;;;;;;15.00;2.85;;;14.10;1.00;;;;;;5033192;28;20046;-33
2022/09/19 07:23:39;;;;;;;20.13;2.53;;;13.40;99.90;;;;;;5034317;28;20411;-34
2022/09/19 07:26:06;;;;;;;15.35;2.63;;;13.60;99.90;;;;;;5034268;28;20045;-33
2022/09/19 07:28:32;;;;;;;20.30;2.95;;;13.40;99.90;;;;;;5049589;28;20498;-35
2022/09/19 07:30:59;;;;;;;11.43;2.13;;;14.10;1.00;;;;;;5017281;28;20049;-33
2022/09/19 07:33:25;;;;;;;21.05;3.13;;;13.00;1.00;;;;;;5033547;28;20167;-34
2022/09/19 07:35:53;;;;;;;20.08;2.47;;;13.60;1.00;;;;;;5033675;28;20124;-34
2022/09/19 07:38:21;;;;;;;13.60;2.55;;;13.60;6.50;;;;;;5034085;28;20049;-33
2022/09/19 07:40:47;;;;;;;18.52;2.85;;;12.40;97.50;;;;;;5034022;28;20137;-34
2022/09/19 07:43:15;;;;;;;25.45;2.47;;;12.10;99.90;;;;;;5033597;28;20053;-33
2022/09/19 07:45:46;;;;;;;15.20;3.42;;;12.20;99.90;;;;;;5032422;28;20061;-33
2022/09/19 07:48:12;;;;;;;23.10;2.63;;;13.60;99.90;;;;;;5033822;28;20060;-34
2022/09/19 07:50:38;;;;;;;24.10;2.47;;;12.30;99.90;;;;;;5034200;28;20045;-33
2022/09/19 07:53:12;;;;;;;21.65;3.05;;;12.20;99.90;;;;;;5033939;28;20446;-33
2022/09/19 07:55:38;;;;;;;23.08;2.60;;;12.70;99.90;;;;;;5034601;28;20053;-33
2022/09/19 07:58:05;;;;;;;21.83;2.95;;;13.30;99.90;;;;;;5034098;28;20394;-34
2022/09/19 08:00:34;;;;;;;18.10;2.70;;;13.70;99.90;;;;;;5033792;28;20045;-34
2022/09/19 08:03:12;;;;;;;23.38;3.92;;;13.00;99.90;;;;;;5033739;28;20079;-34
2022/09/19 08:05:40;;;;;;;19.92;3.17;;;13.60;99.90;;;;;;5034297;28;20053;-36
2022/09/19 08:08:09;;;;;;;13.85;3.33;;;14.10;99.90;;;;;;5034518;28;20045;-37
2022/09/19 08:10:35;;;;;;;17.90;2.97;;;14.30;99.90;;;;;;5033670;28;20541;-38
2022/09/19 08:13:02;;;;;;;19.80;3.05;;;14.60;99.90;;;;;;5000210;28;20137;-38
2022/09/19 08:15:29;;;;;;;20.90;3.10;;;14.60;1.00;;;;;;5016082;28;20064;-40
2022/09/19 08:17:57;;;;;;;20.45;2.80;;;14.50;1.00;;;;;;5032655;28;20045;-39
2022/09/19 08:20:23;;;;;;;18.40;2.47;;;14.90;99.90;;;;;;5033573;28;20061;-40
2022/09/19 08:22:49;;;;;;;15.80;2.45;;;14.70;99.90;;;;;;5032628;28;20052;-40
2022/09/19 08:25:15;;;;;;;10.15;2.00;;;14.50;99.90;;;;;;5033486;28;20037;-38
2022/09/19 08:27:44;;;;;;;11.18;2.30;;;14.60;8.40;;;;;;5032228;28;20054;-41
2022/09/19 08:30:11;;;;;;;16.42;2.78;;;14.60;99.90;;;;;;5033496;28;20103;-41
2022/09/19 08:32:36;;;;;;;15.60;2.25;;;14.50;99.90;;;;;;5033488;28;20454;-40
2022/09/19 08:35:02;;;;;;;19.55;2.83;;;14.50;99.90;;;;;;5033631;28;20041;-40
2022/09/19 08:37:30;;;;;;;11.73;2.28;;;14.60;8.30;;;;;;5032515;28;20046;-41
2022/09/19 08:43:24;;;;;;;14.73;2.10;;;15.10;1.00;;;;;;5036394;28;20046;-40
2022/09/19 08:46:05;;;;;;;13.32;2.63;;;15.40;99.90;;;;;;5020039;28;20094;-41
2022/09/19 08:48:45;;;;;;;15.48;2.67;;;15.70;1.00;;;;;;5037227;28;20057;-41
2022/09/19 08:51:18;;;;;;;28.40;2.80;;;15.80;99.90;;;;;;5037753;28;20506;-41
2022/09/19 08:53:49;;;;;;;16.27;2.85;;;15.90;99.90;;;;;;5037179;28;20506;-41
2022/09/19 08:56:16;;;;;;;11.95;2.60;;;15.80;1.00;;;;;;5036785;28;20514;-41
2022/09/19 08:58:50;;;;;;;19.20;2.75;;;15.50;1.00;;;;;;5037011;28;20053;-42
2022/09/19 09:01:18;;;;;;;18.27;3.75;;;15.30;99.90;;;;;;5036350;28;20077;-41
2022/09/19 09:04:06;;;;;;;19.10;3.20;;;15.30;99.90;;;;;;5036374;28;20124;-42
2022/09/19 09:06:44;;;;;;;15.15;2.67;;;15.20;84.90;;;;;;5036914;28;20049;-42
2022/09/19 09:09:27;;;;;;;18.02;2.90;;;15.10;99.90;;;;;;5037155;28;20045;-39
2022/09/19 09:12:15;;;;;;;14.35;2.47;;;15.00;99.90;;;;;;5037086;28;20072;-38
2022/09/19 09:15:03;;;;;;;21.95;3.72;;;14.20;99.90;;;;;;5036701;28;20080;-39
2022/09/19 09:17:45;;;;;;;12.90;2.13;;;13.90;1.00;;;;;;5037569;28;20045;-40
2022/09/19 09:20:52;;;;;;;14.55;2.88;;;13.90;99.90;;;;;;5036562;28;20084;-36
2022/09/19 09:23:27;;;;;;;9.52;2.00;;;14.30;99.90;;;;;;5026644;28;20062;-38
2022/09/19 09:26:05;;;;;;;13.30;2.13;;;13.80;99.90;;;;;;5037461;28;20045;-37
2022/09/19 09:28:40;;;;;;;12.15;2.35;;;14.20;99.90;;;;;;5036814;28;20060;-39
2022/09/19 09:31:19;;;;;;;17.40;2.85;;;13.80;1.00;;;;;;5037112;28;20060;-39
2022/09/19 09:34:19;;;;;;;17.48;2.60;;;14.40;1.00;;;;;;5036472;28;20133;-41
2022/09/19 09:36:59;;;;;;;16.65;2.53;;;14.20;1.00;;;;;;5035528;28;20053;-41
2022/09/19 09:40:08;;;;;;;12.35;2.63;;;15.00;99.90;;;;;;5036626;28;20049;-41
2022/09/19 09:42:52;;;;;;;19.02;3.88;;;15.90;21.20;;;;;;5036881;28;20099;-41
2022/09/19 09:45:29;;;;;;;17.83;3.40;;;16.50;99.90;;;;;;5034646;28;20499;-41
2022/09/19 09:48:04;;;;;;;20.35;3.38;;;16.90;1.00;;;;;;5035873;28;20052;-42
2022/09/19 09:50:51;;;;;;;18.73;3.38;;;16.10;99.90;;;;;;5036064;28;20053;-34
2022/09/19 09:53:29;;;;;;;7.15;1.23;;;15.80;99.90;;;;;;5035280;28;20053;-34
2022/09/19 09:56:15;;;;;;;12.88;2.45;;;14.20;98.20;;;;;;5036243;28;20360;-32
2022/09/19 09:59:10;;;;;;;17.08;2.55;;;12.80;99.90;;;;;;5035843;28;20387;-32
2022/09/19 10:04:48;;;;;;;18.60;1.90;;;13.40;99.90;;;;;;5036424;28;20065;-33
2022/09/19 10:07:45;;;;;;;16.70;2.15;;;12.30;1.00;;;;;;5036159;28;20111;-33
2022/09/19 10:10:15;;;;;;;18.58;3.08;;;12.40;1.00;;;;;;5034200;28;20458;-32
2022/09/19 10:12:45;;;;;;;18.02;3.88;;;12.70;55.30;;;;;;5035998;28;20052;-33
2022/09/19 10:15:20;;;;;;;16.65;2.58;;;13.80;1.00;;;;;;5018079;28;20041;-33
2022/09/19 10:18:13;;;;;;;13.02;2.05;;;13.20;82.00;;;;;;5035329;28;20512;-36
2022/09/19 10:20:49;;;;;;;12.05;2.00;;;14.70;99.90;;;;;;5033414;28;20111;-35
2022/09/19 10:23:29;;;;;;;13.50;2.47;;;15.30;57.50;;;;;;5035552;28;20041;-35
2022/09/19 10:26:03;;;;;;;15.98;3.03;;;15.60;99.90;;;;;;5018817;28;20446;-38
2022/09/19 10:28:37;;;;;;;16.05;2.17;;;16.10;1.00;;;;;;5018201;28;20064;-38
2022/09/19 10:31:04;;;;;;;21.05;3.08;;;16.80;99.90;;;;;;5035233;28;20050;-37
2022/09/19 10:33:42;;;;;;;11.68;2.28;;;17.10;1.00;;;;;;5035304;28;20057;-39
2022/09/19 10:36:21;;;;;;;14.75;2.30;;;17.90;99.90;;;;;;5033970;28;20057;-35
2022/09/19 10:38:50;;;;;;;15.35;3.17;;;18.30;99.90;;;;;;5018213;28;20076;-40
2022/09/19 10:41:20;;;;;;;12.52;2.50;;;19.20;1.00;;;;;;5034778;28;20357;-40
2022/09/19 10:43:49;;;;;;;11.98;2.33;;;19.60;99.90;;;;;;5035578;28;20466;-40
2022/09/19 10:46:36;;;;;;;17.42;3.75;;;19.90;1.00;;;;;;5035648;28;20053;-40
2022/09/19 10:49:12;;;;;;;19.35;2.55;;;20.00;99.90;;;;;;5034481;28;20061;-40
2022/09/19 10:51:44;;;;;;;13.98;2.38;;;19.60;99.90;;;;;;5034676;28;20427;-40
2022/09/19 10:54:11;;;;;;;21.17;3.13;;;18.90;99.90;;;;;;5035489;28;20049;-40
2022/09/19 10:56:41;;;;;;;15.32;2.85;;;18.40;1.00;;;;;;5035046;28;20068;-40
2022/09/19 10:59:13;;;;;;;14.70;3.45;;;17.90;66.30;;;;;;5033230;28;20045;-40
2022/09/19 11:01:39;;;;;;;18.35;3.00;;;17.50;99.90;;;;;;5034714;28;20052;-39
2022/09/19 11:04:26;;;;;;;15.18;2.20;;;17.10;99.90;;;;;;5034184;28;20059;-41
2022/09/19 11:07:02;;;;;;;19.42;3.97;;;16.80;1.00;;;;;;5035199;28;20052;-39
2022/09/19 11:09:36;;;;;;;15.82;2.42;;;16.40;99.90;;;;;;5033882;28;20049;-39
2022/09/19 11:12:09;;;;;;;17.52;2.10;;;16.10;1.00;;;;;;5034515;28;20068;-39
2022/09/19 11:14:40;;;;;;;13.57;1.92;;;16.00;99.90;;;;;;5018355;28;20104;-38
2022/09/19 11:17:31;;;;;;;15.38;2.63;;;16.20;99.90;;;;;;5033178;28;20053;-39
2022/09/19 11:20:31;;;;;;;13.38;2.10;;;17.20;99.90;;;;;;5034497;28;20045;-41
2022/09/19 11:23:16;;;;;;;11.18;2.05;;;18.10;96.00;;;;;;5034217;28;20202;-40
2022/09/19 11:26:04;;;;;;;13.90;1.85;;;17.50;99.90;;;;;;5034326;28;20052;-38
2022/09/19 11:29:23;;;;;;;13.68;2.13;;;17.10;1.00;;;;;;5033972;28;20042;-40
2022/09/19 11:32:25;;;;;;;10.95;1.98;;;16.20;99.90;;;;;;4995915;28;20053;-40
2022/09/19 11:35:32;;;;;;;11.40;1.90;;;16.30;99.90;;;;;;5012015;28;20633;-37
2022/09/19 11:38:33;;;;;;;13.73;1.60;;;17.20;99.90;;;;;;5050625;28;20399;-38
2022/09/19 11:41:06;;;;;;;12.48;1.83;;;18.00;1.00;;;;;;5034309;28;20438;-39
2022/09/19 11:43:46;;;;;;;19.92;2.35;;;18.40;68.30;;;;;;5034063;28;20492;-38
2022/09/19 11:46:37;;;;;;;9.27;1.90;;;18.70;99.90;;;;;;5034628;28;20149;-38
2022/09/19 11:49:50;;;;;;;11.93;2.40;;;19.00;1.00;;;;;;5033844;28;20107;-40
2022/09/19 11:52:25;;;;;;;12.20;2.22;;;18.60;1.00;;;;;;5034588;28;20059;-39
2022/09/19 11:55:19;;;;;;;13.13;2.45;;;18.30;99.90;;;;;;5034623;28;20057;-37
2022/09/19 11:58:04;;;;;;;11.70;1.95;;;18.60;99.90;;;;;;5034413;28;20045;-38
2022/09/19 12:00:47;;;;;;;19.77;2.67;;;18.80;1.00;;;;;;5033800;28;20187;-39
2022/09/19 12:03:54;;;;;;;13.80;2.00;;;18.20;99.90;;;;;;5033788;28;20088;-39
2022/09/19 12:06:46;;;;;;;14.10;2.78;;;17.80;1.00;;;;;;5022733;28;20057;-39
2022/09/19 12:09:17;;;;;;;10.20;2.13;;;18.40;99.90;;;;;;5032759;28;20085;-39
2022/09/19 12:11:53;;;;;;;14.85;1.77;;;18.50;99.90;;;;;;5032674;28;20288;-38
2022/09/19 12:14:34;;;;;;;11.55;2.30;;;17.90;99.90;;;;;;5016661;28;20049;-39
2022/09/19 12:17:06;;;;;;;12.57;2.65;;;17.20;99.90;;;;;;5033380;28;20045;-38
2022/09/19 12:19:39;;;;;;;17.00;2.03;;;16.80;44.00;;;;;;5032672;28;20080;-36
2022/09/19 12:22:20;;;;;;;12.38;2.30;;;16.60;1.60;;;;;;5032941;28;20088;-39
2022/09/19 12:24:52;;;;;;;12.35;1.92;;;16.90;99.90;;;;;;5033588;28;20107;-39
2022/09/19 12:27:42;;;;;;;13.35;2.63;;;18.00;99.90;;;;;;5033647;28;20049;-40
2022/09/19 12:30:15;;;;;;;15.38;2.05;;;19.10;1.00;;;;;;5016400;28;20064;-40
2022/09/19 12:32:53;;;;;;;9.32;1.63;;;19.10;99.90;;;;;;5032231;28;20057;-40
2022/09/19 12:35:54;;;;;;;11.98;2.42;;;18.50;1.00;;;;;;5033356;28;20046;-41
2022/09/19 12:38:46;;;;;;;11.48;2.22;;;17.80;1.00;;;;;;5032801;28;20136;-39
2022/09/19 12:41:22;;;;;;;16.83;3.30;;;17.00;99.90;;;;;;5034256;28;20143;-38
2022/09/19 12:44:19;;;;;;;13.25;2.78;;;16.40;99.90;;;;;;5033129;28;20053;-40
2022/09/19 12:47:15;;;;;;;11.55;2.50;;;15.80;1.00;;;;;;5033331;28;20053;-40
2022/09/19 12:49:56;;;;;;;16.92;2.15;;;16.10;99.60;;;;;;5033553;28;20103;-39
2022/09/19 12:52:34;;;;;;;17.13;2.55;;;16.70;99.90;;;;;;5033500;28;20054;-40
2022/09/19 12:55:25;;;;;;;9.40;2.00;;;17.00;1.00;;;;;;5033492;28;20124;-40
2022/09/19 12:58:26;;;;;;;13.27;2.22;;;17.30;1.00;;;;;;5033253;28;20049;-40
2022/09/19 13:01:08;;;;;;;9.63;1.95;;;17.20;1.00;;;;;;5033501;28;20041;-40
2022/09/19 13:03:38;;;;;;;18.85;2.90;;;16.80;1.00;;;;;;5033497;28;20046;-40
2022/09/19 13:06:11;;;;;;;13.00;2.10;;;16.70;1.00;;;;;;5033468;28;20124;-41
2022/09/19 13:08:47;;;;;;;13.57;2.30;;;16.70;1.00;;;;;;5032529;28;20042;-40
2022/09/19 13:11:28;;;;;;;12.50;1.95;;;17.00;99.90;;;;;;5033741;28;20356;-39
2022/09/19 13:14:00;;;;;;;7.75;1.85;;;16.80;1.00;;;;;;5033162;28;20472;-38
2022/09/19 13:16:30;;;;;;;9.40;1.33;;;17.00;99.90;;;;;;5033073;28;20045;-40
2022/09/19 13:24:50;;;;;;;10.90;1.65;;;18.00;1.00;;;;;;5033038;28;20495;-41
2022/09/19 13:27:17;;;;;;;10.77;2.08;;;18.00;99.90;;;;;;5024888;28;20053;-41
2022/09/19 13:29:46;;;;;;;9.05;1.92;;;17.90;1.00;;;;;;5036541;28;20057;-41
2022/09/19 13:32:46;;;;;;;12.25;2.15;;;17.60;1.00;;;;;;5035517;28;20049;-40
2022/09/19 13:35:16;;;;;;;10.60;2.10;;;17.60;99.90;;;;;;5035930;28;20056;-40
2022/09/19 13:37:58;;;;;;;12.07;2.35;;;17.30;99.90;;;;;;5036857;28;20175;-40